sensor_id;sensor_type;location;lat;lon;timestamp;P1;durP1;ratioP1;P2;durP2;ratioP2
56267;SDS011;42175;46.930;9.532;2023-05-07T00:01:45;5.53;;;2.45;;
56267;SDS011;42175;46.930;9.532;2023-05-07T00:04:11;2.53;;;1.60;;
56267;SDS011;42175;46.930;9.532;2023-05-07T00:06:38;3.38;;;1.70;;
56267;SDS011;42175;46.930;9.532;2023-05-07T00:09:03;4.75;;;1.73;;
56267;SDS011;42175;46.930;9.532;2023-05-07T00:11:29;3.30;;;1.80;;
56267;SDS011;42175;46.930;9.532;2023-05-07T00:13:55;5.40;;;1.63;;
56267;SDS011;42175;46.930;9.532;2023-05-07T00:16:20;2.90;;;1.67;;
56267;SDS011;42175;46.930;9.532;2023-05-07T00:18:46;4.13;;;1.67;;
56267;SDS011;42175;46.930;9.532;2023-05-07T00:21:12;3.50;;;1.45;;
56267;SDS011;42175;46.930;9.532;2023-05-07T00:23:38;2.20;;;1.33;;
56267;SDS011;42175;46.930;9.532;2023-05-07T00:26:04;6.55;;;1.50;;
56267;SDS011;42175;46.930;9.532;2023-05-07T00:28:29;5.38;;;1.75;;
56267;SDS011;42175;46.930;9.532;2023-05-07T00:30:55;3.35;;;1.65;;
56267;SDS011;42175;46.930;9.532;2023-05-07T00:33:21;3.28;;;2.05;;
56267;SDS011;42175;46.930;9.532;2023-05-07T00:35:47;2.67;;;1.20;;
56267;SDS011;42175;46.930;9.532;2023-05-07T00:38:13;3.08;;;1.38;;
56267;SDS011;42175;46.930;9.532;2023-05-07T00:40:40;4.45;;;1.60;;
56267;SDS011;42175;46.930;9.532;2023-05-07T00:43:06;2.60;;;1.60;;
56267;SDS011;42175;46.930;9.532;2023-05-07T00:45:33;2.97;;;1.50;;
56267;SDS011;42175;46.930;9.532;2023-05-07T00:48:00;3.25;;;1.63;;
56267;SDS011;42175;46.930;9.532;2023-05-07T00:50:26;3.05;;;1.60;;
56267;SDS011;42175;46.930;9.532;2023-05-07T00:52:53;7.13;;;1.20;;
56267;SDS011;42175;46.930;9.532;2023-05-07T00:55:19;3.38;;;1.63;;
56267;SDS011;42175;46.930;9.532;2023-05-07T00:57:47;3.38;;;1.25;;
56267;SDS011;42175;46.930;9.532;2023-05-07T01:00:13;3.22;;;1.65;;
56267;SDS011;42175;46.930;9.532;2023-05-07T01:02:39;2.60;;;1.20;;
56267;SDS011;42175;46.930;9.532;2023-05-07T01:05:05;2.88;;;1.40;;
56267;SDS011;42175;46.930;9.532;2023-05-07T01:07:34;5.28;;;1.50;;
56267;SDS011;42175;46.930;9.532;2023-05-07T01:10:00;5.57;;;1.60;;
56267;SDS011;42175;46.930;9.532;2023-05-07T01:12:28;2.25;;;1.48;;
56267;SDS011;42175;46.930;9.532;2023-05-07T01:14:54;1.88;;;1.45;;
56267;SDS011;42175;46.930;9.532;2023-05-07T01:17:20;5.85;;;1.80;;
56267;SDS011;42175;46.930;9.532;2023-05-07T01:19:46;4.43;;;1.80;;
56267;SDS011;42175;46.930;9.532;2023-05-07T01:22:13;4.88;;;1.60;;
56267;SDS011;42175;46.930;9.532;2023-05-07T01:24:41;6.72;;;1.65;;
56267;SDS011;42175;46.930;9.532;2023-05-07T01:27:08;3.17;;;1.40;;
56267;SDS011;42175;46.930;9.532;2023-05-07T01:29:34;2.80;;;1.30;;
56267;SDS011;42175;46.930;9.532;2023-05-07T01:32:00;4.15;;;1.42;;
56267;SDS011;42175;46.930;9.532;2023-05-07T01:34:28;3.88;;;1.70;;
56267;SDS011;42175;46.930;9.532;2023-05-07T01:36:57;3.92;;;1.50;;
56267;SDS011;42175;46.930;9.532;2023-05-07T01:39:25;2.83;;;1.42;;
56267;SDS011;42175;46.930;9.532;2023-05-07T01:41:53;3.47;;;1.25;;
56267;SDS011;42175;46.930;9.532;2023-05-07T01:44:21;2.10;;;1.38;;
56267;SDS011;42175;46.930;9.532;2023-05-07T01:46:47;2.95;;;1.40;;
56267;SDS011;42175;46.930;9.532;2023-05-07T01:49:14;5.18;;;1.33;;
56267;SDS011;42175;46.930;9.532;2023-05-07T01:51:41;2.13;;;1.30;;
56267;SDS011;42175;46.930;9.532;2023-05-07T01:54:07;2.88;;;1.45;;
56267;SDS011;42175;46.930;9.532;2023-05-07T01:56:33;2.70;;;1.63;;
56267;SDS011;42175;46.930;9.532;2023-05-07T01:58:59;2.45;;;1.38;;
56267;SDS011;42175;46.930;9.532;2023-05-07T02:01:25;6.05;;;1.40;;
56267;SDS011;42175;46.930;9.532;2023-05-07T02:03:51;4.68;;;1.38;;
56267;SDS011;42175;46.930;9.532;2023-05-07T02:06:17;4.70;;;1.30;;
56267;SDS011;42175;46.930;9.532;2023-05-07T02:08:42;2.90;;;1.33;;
56267;SDS011;42175;46.930;9.532;2023-05-07T02:11:08;3.63;;;1.92;;
56267;SDS011;42175;46.930;9.532;2023-05-07T02:13:34;2.45;;;1.58;;
56267;SDS011;42175;46.930;9.532;2023-05-07T02:15:59;2.75;;;1.48;;
56267;SDS011;42175;46.930;9.532;2023-05-07T02:18:25;3.90;;;1.48;;
56267;SDS011;42175;46.930;9.532;2023-05-07T02:20:51;2.53;;;1.50;;
56267;SDS011;42175;46.930;9.532;2023-05-07T02:23:17;3.60;;;1.45;;
56267;SDS011;42175;46.930;9.532;2023-05-07T02:25:43;1.95;;;1.25;;
56267;SDS011;42175;46.930;9.532;2023-05-07T02:28:08;1.92;;;1.33;;
56267;SDS011;42175;46.930;9.532;2023-05-07T02:30:35;2.65;;;1.70;;
56267;SDS011;42175;46.930;9.532;2023-05-07T02:33:02;2.95;;;1.20;;
56267;SDS011;42175;46.930;9.532;2023-05-07T02:35:27;2.63;;;1.33;;
56267;SDS011;42175;46.930;9.532;2023-05-07T02:37:53;2.22;;;1.23;;
56267;SDS011;42175;46.930;9.532;2023-05-07T02:40:19;4.20;;;1.23;;
56267;SDS011;42175;46.930;9.532;2023-05-07T02:42:45;1.60;;;1.02;;
56267;SDS011;42175;46.930;9.532;2023-05-07T02:45:10;3.83;;;1.42;;
56267;SDS011;42175;46.930;9.532;2023-05-07T02:47:36;4.45;;;1.48;;
56267;SDS011;42175;46.930;9.532;2023-05-07T02:50:02;3.30;;;1.35;;
56267;SDS011;42175;46.930;9.532;2023-05-07T02:52:28;1.75;;;1.30;;
56267;SDS011;42175;46.930;9.532;2023-05-07T02:54:54;2.78;;;1.25;;
56267;SDS011;42175;46.930;9.532;2023-05-07T02:57:20;2.28;;;1.25;;
56267;SDS011;42175;46.930;9.532;2023-05-07T02:59:46;2.33;;;1.08;;
56267;SDS011;42175;46.930;9.532;2023-05-07T03:02:11;2.40;;;1.30;;
56267;SDS011;42175;46.930;9.532;2023-05-07T03:04:38;2.55;;;1.23;;
56267;SDS011;42175;46.930;9.532;2023-05-07T03:07:04;3.45;;;1.30;;
56267;SDS011;42175;46.930;9.532;2023-05-07T03:09:30;2.33;;;1.30;;
56267;SDS011;42175;46.930;9.532;2023-05-07T03:11:56;4.65;;;1.40;;
56267;SDS011;42175;46.930;9.532;2023-05-07T03:14:22;3.28;;;1.17;;
56267;SDS011;42175;46.930;9.532;2023-05-07T03:16:48;4.05;;;1.33;;
56267;SDS011;42175;46.930;9.532;2023-05-07T03:19:14;4.97;;;1.30;;
56267;SDS011;42175;46.930;9.532;2023-05-07T03:21:40;4.47;;;1.30;;
56267;SDS011;42175;46.930;9.532;2023-05-07T03:24:06;6.47;;;1.70;;
56267;SDS011;42175;46.930;9.532;2023-05-07T03:26:32;1.73;;;1.23;;
56267;SDS011;42175;46.930;9.532;2023-05-07T03:28:57;4.68;;;1.27;;
56267;SDS011;42175;46.930;9.532;2023-05-07T03:31:23;2.80;;;1.10;;
56267;SDS011;42175;46.930;9.532;2023-05-07T03:33:50;3.15;;;1.33;;
56267;SDS011;42175;46.930;9.532;2023-05-07T03:36:20;3.38;;;1.40;;
56267;SDS011;42175;46.930;9.532;2023-05-07T03:38:46;1.75;;;1.13;;
56267;SDS011;42175;46.930;9.532;2023-05-07T03:41:13;2.58;;;1.20;;
56267;SDS011;42175;46.930;9.532;2023-05-07T03:43:38;2.10;;;1.40;;
56267;SDS011;42175;46.930;9.532;2023-05-07T03:46:05;3.40;;;1.30;;
56267;SDS011;42175;46.930;9.532;2023-05-07T03:48:30;1.73;;;1.10;;
56267;SDS011;42175;46.930;9.532;2023-05-07T03:50:57;1.73;;;1.17;;
56267;SDS011;42175;46.930;9.532;2023-05-07T03:53:23;2.83;;;1.48;;
56267;SDS011;42175;46.930;9.532;2023-05-07T03:55:49;3.25;;;1.48;;
56267;SDS011;42175;46.930;9.532;2023-05-07T03:58:15;3.22;;;1.33;;
56267;SDS011;42175;46.930;9.532;2023-05-07T04:00:41;4.63;;;1.30;;
56267;SDS011;42175;46.930;9.532;2023-05-07T04:03:07;1.70;;;1.30;;
56267;SDS011;42175;46.930;9.532;2023-05-07T04:05:33;4.95;;;1.30;;
56267;SDS011;42175;46.930;9.532;2023-05-07T04:07:59;3.17;;;1.20;;
56267;SDS011;42175;46.930;9.532;2023-05-07T04:10:25;2.60;;;1.17;;
56267;SDS011;42175;46.930;9.532;2023-05-07T04:12:53;1.55;;;1.10;;
56267;SDS011;42175;46.930;9.532;2023-05-07T04:15:19;4.15;;;1.42;;
56267;SDS011;42175;46.930;9.532;2023-05-07T04:17:45;2.05;;;1.25;;
56267;SDS011;42175;46.930;9.532;2023-05-07T04:20:14;3.38;;;1.23;;
56267;SDS011;42175;46.930;9.532;2023-05-07T04:22:42;2.28;;;1.10;;
56267;SDS011;42175;46.930;9.532;2023-05-07T04:25:08;3.42;;;1.10;;
56267;SDS011;42175;46.930;9.532;2023-05-07T04:27:35;4.72;;;1.30;;
56267;SDS011;42175;46.930;9.532;2023-05-07T04:30:01;1.88;;;1.10;;
56267;SDS011;42175;46.930;9.532;2023-05-07T04:32:28;3.20;;;1.10;;
56267;SDS011;42175;46.930;9.532;2023-05-07T04:34:54;1.83;;;1.20;;
56267;SDS011;42175;46.930;9.532;2023-05-07T04:37:20;1.67;;;1.20;;
56267;SDS011;42175;46.930;9.532;2023-05-07T04:39:46;2.10;;;1.00;;
56267;SDS011;42175;46.930;9.532;2023-05-07T04:42:15;1.90;;;1.30;;
56267;SDS011;42175;46.930;9.532;2023-05-07T04:44:42;4.13;;;1.38;;
56267;SDS011;42175;46.930;9.532;2023-05-07T04:47:10;3.03;;;1.40;;
56267;SDS011;42175;46.930;9.532;2023-05-07T04:49:36;4.40;;;1.35;;
56267;SDS011;42175;46.930;9.532;2023-05-07T04:52:03;2.35;;;1.10;;
56267;SDS011;42175;46.930;9.532;2023-05-07T04:54:29;7.05;;;1.50;;
56267;SDS011;42175;46.930;9.532;2023-05-07T04:56:55;4.30;;;2.13;;
56267;SDS011;42175;46.930;9.532;2023-05-07T04:59:21;2.05;;;1.10;;
56267;SDS011;42175;46.930;9.532;2023-05-07T05:01:46;3.22;;;1.20;;
56267;SDS011;42175;46.930;9.532;2023-05-07T05:04:12;5.30;;;1.38;;
56267;SDS011;42175;46.930;9.532;2023-05-07T05:06:38;6.30;;;1.20;;
56267;SDS011;42175;46.930;9.532;2023-05-07T05:09:04;3.22;;;1.42;;
56267;SDS011;42175;46.930;9.532;2023-05-07T05:11:30;1.50;;;1.20;;
56267;SDS011;42175;46.930;9.532;2023-05-07T05:13:56;2.95;;;1.27;;
56267;SDS011;42175;46.930;9.532;2023-05-07T05:16:22;2.08;;;1.13;;
56267;SDS011;42175;46.930;9.532;2023-05-07T05:18:48;3.85;;;1.00;;
56267;SDS011;42175;46.930;9.532;2023-05-07T05:21:13;1.25;;;0.80;;
56267;SDS011;42175;46.930;9.532;2023-05-07T05:23:39;1.92;;;1.00;;
56267;SDS011;42175;46.930;9.532;2023-05-07T05:26:05;1.60;;;1.00;;
56267;SDS011;42175;46.930;9.532;2023-05-07T05:28:30;3.25;;;1.30;;
56267;SDS011;42175;46.930;9.532;2023-05-07T05:30:56;2.55;;;1.27;;
56267;SDS011;42175;46.930;9.532;2023-05-07T05:33:22;2.00;;;1.10;;
56267;SDS011;42175;46.930;9.532;2023-05-07T05:35:49;2.08;;;1.10;;
56267;SDS011;42175;46.930;9.532;2023-05-07T05:38:15;2.03;;;1.00;;
56267;SDS011;42175;46.930;9.532;2023-05-07T05:40:41;3.00;;;1.30;;
56267;SDS011;42175;46.930;9.532;2023-05-07T05:43:07;3.85;;;1.30;;
56267;SDS011;42175;46.930;9.532;2023-05-07T05:45:32;3.35;;;1.50;;
56267;SDS011;42175;46.930;9.532;2023-05-07T05:47:58;3.35;;;1.80;;
56267;SDS011;42175;46.930;9.532;2023-05-07T05:50:24;3.67;;;1.40;;
56267;SDS011;42175;46.930;9.532;2023-05-07T05:52:50;2.42;;;1.63;;
56267;SDS011;42175;46.930;9.532;2023-05-07T05:55:16;4.22;;;1.15;;
56267;SDS011;42175;46.930;9.532;2023-05-07T05:57:42;2.83;;;1.40;;
56267;SDS011;42175;46.930;9.532;2023-05-07T06:00:08;1.75;;;1.10;;
56267;SDS011;42175;46.930;9.532;2023-05-07T06:02:34;4.68;;;1.17;;
56267;SDS011;42175;46.930;9.532;2023-05-07T06:05:00;4.95;;;1.42;;
56267;SDS011;42175;46.930;9.532;2023-05-07T06:07:25;2.33;;;1.52;;
56267;SDS011;42175;46.930;9.532;2023-05-07T06:09:51;2.53;;;1.30;;
56267;SDS011;42175;46.930;9.532;2023-05-07T06:12:17;4.07;;;1.35;;
56267;SDS011;42175;46.930;9.532;2023-05-07T06:14:43;2.45;;;1.20;;
56267;SDS011;42175;46.930;9.532;2023-05-07T06:17:09;5.72;;;1.60;;
56267;SDS011;42175;46.930;9.532;2023-05-07T06:19:34;13.25;;;2.83;;
56267;SDS011;42175;46.930;9.532;2023-05-07T06:22:00;8.20;;;2.05;;
56267;SDS011;42175;46.930;9.532;2023-05-07T06:24:27;10.55;;;2.13;;
56267;SDS011;42175;46.930;9.532;2023-05-07T06:26:52;9.55;;;1.50;;
56267;SDS011;42175;46.930;9.532;2023-05-07T06:29:18;3.97;;;1.30;;
56267;SDS011;42175;46.930;9.532;2023-05-07T06:31:43;9.75;;;1.58;;
56267;SDS011;42175;46.930;9.532;2023-05-07T06:34:09;7.65;;;4.30;;
56267;SDS011;42175;46.930;9.532;2023-05-07T06:36:39;21.08;;;11.57;;
56267;SDS011;42175;46.930;9.532;2023-05-07T06:39:05;89.60;;;34.80;;
56267;SDS011;42175;46.930;9.532;2023-05-07T06:41:31;76.30;;;29.63;;
56267;SDS011;42175;46.930;9.532;2023-05-07T06:43:57;67.85;;;28.80;;
56267;SDS011;42175;46.930;9.532;2023-05-07T06:46:22;65.75;;;26.23;;
56267;SDS011;42175;46.930;9.532;2023-05-07T06:48:48;63.70;;;25.55;;
56267;SDS011;42175;46.930;9.532;2023-05-07T06:51:14;61.88;;;26.17;;
56267;SDS011;42175;46.930;9.532;2023-05-07T06:53:39;65.38;;;24.05;;
56267;SDS011;42175;46.930;9.532;2023-05-07T06:56:05;65.32;;;23.50;;
56267;SDS011;42175;46.930;9.532;2023-05-07T06:58:31;54.50;;;22.23;;
56267;SDS011;42175;46.930;9.532;2023-05-07T07:00:57;16.40;;;6.47;;
56267;SDS011;42175;46.930;9.532;2023-05-07T07:03:23;10.00;;;4.35;;
56267;SDS011;42175;46.930;9.532;2023-05-07T07:05:51;20.63;;;5.50;;
56267;SDS011;42175;46.930;9.532;2023-05-07T07:08:18;13.95;;;3.47;;
56267;SDS011;42175;46.930;9.532;2023-05-07T07:10:46;11.88;;;3.22;;
56267;SDS011;42175;46.930;9.532;2023-05-07T07:13:12;5.50;;;2.30;;
56267;SDS011;42175;46.930;9.532;2023-05-07T07:15:38;9.27;;;2.58;;
56267;SDS011;42175;46.930;9.532;2023-05-07T07:18:05;6.97;;;1.80;;
56267;SDS011;42175;46.930;9.532;2023-05-07T07:20:31;5.07;;;2.00;;
56267;SDS011;42175;46.930;9.532;2023-05-07T07:22:57;6.65;;;2.00;;
56267;SDS011;42175;46.930;9.532;2023-05-07T07:25:23;7.05;;;2.42;;
56267;SDS011;42175;46.930;9.532;2023-05-07T07:27:49;9.30;;;2.53;;
56267;SDS011;42175;46.930;9.532;2023-05-07T07:30:15;5.60;;;2.45;;
56267;SDS011;42175;46.930;9.532;2023-05-07T07:32:40;11.18;;;2.70;;
56267;SDS011;42175;46.930;9.532;2023-05-07T07:35:06;6.47;;;2.35;;
56267;SDS011;42175;46.930;9.532;2023-05-07T07:37:32;6.43;;;2.30;;
56267;SDS011;42175;46.930;9.532;2023-05-07T07:39:58;7.05;;;3.00;;
56267;SDS011;42175;46.930;9.532;2023-05-07T07:42:25;5.63;;;2.47;;
56267;SDS011;42175;46.930;9.532;2023-05-07T07:44:50;6.07;;;2.17;;
56267;SDS011;42175;46.930;9.532;2023-05-07T07:47:16;7.28;;;2.00;;
56267;SDS011;42175;46.930;9.532;2023-05-07T07:49:42;5.85;;;2.22;;
56267;SDS011;42175;46.930;9.532;2023-05-07T07:52:07;3.92;;;1.88;;
56267;SDS011;42175;46.930;9.532;2023-05-07T07:54:33;6.93;;;1.65;;
56267;SDS011;42175;46.930;9.532;2023-05-07T07:56:59;4.95;;;1.83;;
56267;SDS011;42175;46.930;9.532;2023-05-07T07:59:24;10.80;;;2.13;;
56267;SDS011;42175;46.930;9.532;2023-05-07T08:01:50;6.45;;;2.25;;
56267;SDS011;42175;46.930;9.532;2023-05-07T08:04:17;7.07;;;2.80;;
56267;SDS011;42175;46.930;9.532;2023-05-07T08:06:43;8.23;;;2.58;;
56267;SDS011;42175;46.930;9.532;2023-05-07T08:09:09;5.43;;;2.03;;
56267;SDS011;42175;46.930;9.532;2023-05-07T08:11:34;6.32;;;2.00;;
56267;SDS011;42175;46.930;9.532;2023-05-07T08:14:00;10.18;;;2.58;;
56267;SDS011;42175;46.930;9.532;2023-05-07T08:16:26;5.72;;;1.90;;
56267;SDS011;42175;46.930;9.532;2023-05-07T08:18:53;8.60;;;2.50;;
56267;SDS011;42175;46.930;9.532;2023-05-07T08:21:18;7.22;;;2.78;;
56267;SDS011;42175;46.930;9.532;2023-05-07T08:23:45;6.35;;;1.70;;
56267;SDS011;42175;46.930;9.532;2023-05-07T08:26:10;4.47;;;1.83;;
56267;SDS011;42175;46.930;9.532;2023-05-07T08:28:36;7.15;;;2.10;;
56267;SDS011;42175;46.930;9.532;2023-05-07T08:31:02;7.53;;;2.80;;
56267;SDS011;42175;46.930;9.532;2023-05-07T08:33:28;6.47;;;2.50;;
56267;SDS011;42175;46.930;9.532;2023-05-07T08:35:53;6.10;;;1.85;;
56267;SDS011;42175;46.930;9.532;2023-05-07T08:38:19;11.13;;;2.65;;
56267;SDS011;42175;46.930;9.532;2023-05-07T08:40:45;7.60;;;1.95;;
56267;SDS011;42175;46.930;9.532;2023-05-07T08:43:14;6.35;;;2.10;;
56267;SDS011;42175;46.930;9.532;2023-05-07T08:45:41;8.80;;;2.20;;
56267;SDS011;42175;46.930;9.532;2023-05-07T08:48:14;7.15;;;2.15;;
56267;SDS011;42175;46.930;9.532;2023-05-07T08:50:40;6.90;;;2.58;;
56267;SDS011;42175;46.930;9.532;2023-05-07T08:53:06;8.63;;;4.78;;
56267;SDS011;42175;46.930;9.532;2023-05-07T08:55:32;36.33;;;24.33;;
56267;SDS011;42175;46.930;9.532;2023-05-07T08:58:00;77.43;;;58.00;;
56267;SDS011;42175;46.930;9.532;2023-05-07T09:00:26;82.85;;;62.92;;
56267;SDS011;42175;46.930;9.532;2023-05-07T09:02:52;104.82;;;75.68;;
56267;SDS011;42175;46.930;9.532;2023-05-07T09:05:19;119.90;;;91.88;;
56267;SDS011;42175;46.930;9.532;2023-05-07T09:07:45;127.82;;;92.53;;
56267;SDS011;42175;46.930;9.532;2023-05-07T09:10:11;132.50;;;96.55;;
56267;SDS011;42175;46.930;9.532;2023-05-07T09:12:37;125.65;;;97.45;;
56267;SDS011;42175;46.930;9.532;2023-05-07T09:15:04;129.07;;;94.80;;
56267;SDS011;42175;46.930;9.532;2023-05-07T09:17:30;126.00;;;97.07;;
56267;SDS011;42175;46.930;9.532;2023-05-07T09:19:56;127.78;;;96.57;;
56267;SDS011;42175;46.930;9.532;2023-05-07T09:22:28;121.57;;;92.10;;
56267;SDS011;42175;46.930;9.532;2023-05-07T09:24:57;127.32;;;93.68;;
56267;SDS011;42175;46.930;9.532;2023-05-07T09:27:24;119.70;;;88.93;;
56267;SDS011;42175;46.930;9.532;2023-05-07T09:29:51;125.13;;;84.63;;
56267;SDS011;42175;46.930;9.532;2023-05-07T09:32:17;106.57;;;81.80;;
56267;SDS011;42175;46.930;9.532;2023-05-07T09:34:42;104.40;;;78.57;;
56267;SDS011;42175;46.930;9.532;2023-05-07T09:37:08;105.40;;;78.85;;
56267;SDS011;42175;46.930;9.532;2023-05-07T09:39:41;100.18;;;79.30;;
56267;SDS011;42175;46.930;9.532;2023-05-07T09:44:37;103.50;;;73.38;;
56267;SDS011;42175;46.930;9.532;2023-05-07T09:47:07;90.32;;;68.72;;
56267;SDS011;42175;46.930;9.532;2023-05-07T09:49:34;92.63;;;68.68;;
56267;SDS011;42175;46.930;9.532;2023-05-07T09:52:02;81.78;;;61.28;;
56267;SDS011;42175;46.930;9.532;2023-05-07T09:54:31;74.75;;;60.08;;
56267;SDS011;42175;46.930;9.532;2023-05-07T09:56:58;77.30;;;56.72;;
56267;SDS011;42175;46.930;9.532;2023-05-07T09:59:27;78.05;;;59.33;;
56267;SDS011;42175;46.930;9.532;2023-05-07T10:01:56;70.85;;;55.08;;
56267;SDS011;42175;46.930;9.532;2023-05-07T10:04:24;66.13;;;52.45;;
56267;SDS011;42175;46.930;9.532;2023-05-07T10:06:53;68.40;;;51.22;;
56267;SDS011;42175;46.930;9.532;2023-05-07T10:09:20;67.32;;;48.90;;
56267;SDS011;42175;46.930;9.532;2023-05-07T10:11:50;67.95;;;48.92;;
56267;SDS011;42175;46.930;9.532;2023-05-07T10:14:17;58.90;;;45.13;;
56267;SDS011;42175;46.930;9.532;2023-05-07T10:16:45;60.63;;;43.78;;
56267;SDS011;42175;46.930;9.532;2023-05-07T10:19:12;53.90;;;41.92;;
56267;SDS011;42175;46.930;9.532;2023-05-07T10:21:42;55.13;;;41.60;;
56267;SDS011;42175;46.930;9.532;2023-05-07T10:24:26;56.58;;;45.22;;
56267;SDS011;42175;46.930;9.532;2023-05-07T10:26:54;48.20;;;39.08;;
56267;SDS011;42175;46.930;9.532;2023-05-07T10:32:14;49.35;;;38.25;;
56267;SDS011;42175;46.930;9.532;2023-05-07T10:34:43;46.95;;;35.30;;
56267;SDS011;42175;46.930;9.532;2023-05-07T10:37:12;44.38;;;35.40;;
56267;SDS011;42175;46.930;9.532;2023-05-07T10:39:38;44.05;;;33.78;;
56267;SDS011;42175;46.930;9.532;2023-05-07T10:42:11;42.20;;;32.45;;
56267;SDS011;42175;46.930;9.532;2023-05-07T10:44:39;39.72;;;31.85;;
56267;SDS011;42175;46.930;9.532;2023-05-07T10:47:15;40.30;;;29.95;;
56267;SDS011;42175;46.930;9.532;2023-05-07T10:52:20;41.83;;;30.38;;
56267;SDS011;42175;46.930;9.532;2023-05-07T10:54:48;34.70;;;27.63;;
56267;SDS011;42175;46.930;9.532;2023-05-07T10:57:39;33.75;;;26.67;;
56267;SDS011;42175;46.930;9.532;2023-05-07T11:05:28;31.70;;;25.17;;
56267;SDS011;42175;46.930;9.532;2023-05-07T11:07:56;34.50;;;25.17;;
56267;SDS011;42175;46.930;9.532;2023-05-07T11:10:47;31.05;;;25.17;;
56267;SDS011;42175;46.930;9.532;2023-05-07T11:13:13;29.25;;;23.23;;
56267;SDS011;42175;46.930;9.532;2023-05-07T11:15:40;31.77;;;22.88;;
56267;SDS011;42175;46.930;9.532;2023-05-07T11:18:09;27.55;;;21.77;;
56267;SDS011;42175;46.930;9.532;2023-05-07T11:26:02;27.48;;;21.05;;
56267;SDS011;42175;46.930;9.532;2023-05-07T11:28:38;25.30;;;18.70;;
56267;SDS011;42175;46.930;9.532;2023-05-07T11:31:05;26.20;;;20.45;;
56267;SDS011;42175;46.930;9.532;2023-05-07T11:33:32;22.67;;;17.02;;
56267;SDS011;42175;46.930;9.532;2023-05-07T11:36:02;23.70;;;18.27;;
56267;SDS011;42175;46.930;9.532;2023-05-07T11:38:29;23.33;;;17.80;;
56267;SDS011;42175;46.930;9.532;2023-05-07T11:40:56;31.55;;;19.10;;
56267;SDS011;42175;46.930;9.532;2023-05-07T11:43:27;25.33;;;17.92;;
56267;SDS011;42175;46.930;9.532;2023-05-07T11:45:53;22.98;;;17.13;;
56267;SDS011;42175;46.930;9.532;2023-05-07T11:48:20;24.13;;;17.00;;
56267;SDS011;42175;46.930;9.532;2023-05-07T11:53:25;17.70;;;14.45;;
56267;SDS011;42175;46.930;9.532;2023-05-07T11:55:52;20.10;;;15.60;;
56267;SDS011;42175;46.930;9.532;2023-05-07T11:58:20;21.48;;;14.48;;
56267;SDS011;42175;46.930;9.532;2023-05-07T12:00:48;18.77;;;13.77;;
56267;SDS011;42175;46.930;9.532;2023-05-07T12:03:15;16.10;;;12.95;;
56267;SDS011;42175;46.930;9.532;2023-05-07T12:05:40;19.58;;;14.00;;
56267;SDS011;42175;46.930;9.532;2023-05-07T12:08:07;19.17;;;13.27;;
56267;SDS011;42175;46.930;9.532;2023-05-07T12:10:33;17.95;;;12.35;;
56267;SDS011;42175;46.930;9.532;2023-05-07T12:12:58;17.55;;;12.95;;
56267;SDS011;42175;46.930;9.532;2023-05-07T12:15:24;15.82;;;13.00;;
56267;SDS011;42175;46.930;9.532;2023-05-07T12:17:50;16.83;;;13.05;;
56267;SDS011;42175;46.930;9.532;2023-05-07T12:20:17;17.40;;;13.85;;
56267;SDS011;42175;46.930;9.532;2023-05-07T12:22:43;16.15;;;12.48;;
56267;SDS011;42175;46.930;9.532;2023-05-07T12:25:10;16.58;;;13.15;;
56267;SDS011;42175;46.930;9.532;2023-05-07T12:27:36;16.13;;;12.35;;
56267;SDS011;42175;46.930;9.532;2023-05-07T12:30:04;19.63;;;12.68;;
56267;SDS011;42175;46.930;9.532;2023-05-07T12:32:30;16.17;;;11.35;;
56267;SDS011;42175;46.930;9.532;2023-05-07T12:35:01;18.48;;;12.23;;
56267;SDS011;42175;46.930;9.532;2023-05-07T12:37:27;14.73;;;10.95;;
56267;SDS011;42175;46.930;9.532;2023-05-07T12:40:09;14.38;;;10.77;;
56267;SDS011;42175;46.930;9.532;2023-05-07T12:42:36;15.13;;;10.77;;
56267;SDS011;42175;46.930;9.532;2023-05-07T12:45:12;14.13;;;10.82;;
56267;SDS011;42175;46.930;9.532;2023-05-07T12:47:43;12.88;;;10.05;;
56267;SDS011;42175;46.930;9.532;2023-05-07T12:50:11;12.23;;;9.23;;
56267;SDS011;42175;46.930;9.532;2023-05-07T12:52:37;12.77;;;9.65;;
56267;SDS011;42175;46.930;9.532;2023-05-07T12:55:07;14.20;;;9.13;;
56267;SDS011;42175;46.930;9.532;2023-05-07T12:57:40;13.57;;;9.27;;
56267;SDS011;42175;46.930;9.532;2023-05-07T13:00:08;14.57;;;9.77;;
56267;SDS011;42175;46.930;9.532;2023-05-07T13:02:37;11.35;;;8.95;;
56267;SDS011;42175;46.930;9.532;2023-05-07T13:05:04;11.23;;;8.95;;
56267;SDS011;42175;46.930;9.532;2023-05-07T13:07:30;12.15;;;8.85;;
56267;SDS011;42175;46.930;9.532;2023-05-07T13:09:55;13.60;;;10.13;;
56267;SDS011;42175;46.930;9.532;2023-05-07T13:12:21;10.82;;;8.75;;
56267;SDS011;42175;46.930;9.532;2023-05-07T13:14:47;12.00;;;9.05;;
56267;SDS011;42175;46.930;9.532;2023-05-07T13:17:12;10.65;;;8.57;;
56267;SDS011;42175;46.930;9.532;2023-05-07T13:19:38;12.23;;;8.52;;
56267;SDS011;42175;46.930;9.532;2023-05-07T13:22:04;10.68;;;8.07;;
56267;SDS011;42175;46.930;9.532;2023-05-07T13:24:30;11.13;;;9.27;;
56267;SDS011;42175;46.930;9.532;2023-05-07T13:26:55;10.75;;;8.45;;
56267;SDS011;42175;46.930;9.532;2023-05-07T13:29:21;10.73;;;8.55;;
56267;SDS011;42175;46.930;9.532;2023-05-07T13:31:54;10.57;;;7.95;;
56267;SDS011;42175;46.930;9.532;2023-05-07T13:34:20;9.95;;;8.23;;
56267;SDS011;42175;46.930;9.532;2023-05-07T13:36:45;13.57;;;9.05;;
56267;SDS011;42175;46.930;9.532;2023-05-07T13:39:11;12.40;;;8.13;;
56267;SDS011;42175;46.930;9.532;2023-05-07T13:41:37;16.20;;;8.65;;
56267;SDS011;42175;46.930;9.532;2023-05-07T13:44:02;17.05;;;7.18;;
56267;SDS011;42175;46.930;9.532;2023-05-07T13:46:28;11.35;;;7.57;;
56267;SDS011;42175;46.930;9.532;2023-05-07T13:48:54;8.82;;;6.10;;
56267;SDS011;42175;46.930;9.532;2023-05-07T13:51:20;14.77;;;6.15;;
56267;SDS011;42175;46.930;9.532;2023-05-07T13:53:46;20.92;;;6.53;;
56267;SDS011;42175;46.930;9.532;2023-05-07T13:56:12;9.77;;;6.57;;
56267;SDS011;42175;46.930;9.532;2023-05-07T13:58:39;13.13;;;6.45;;
56267;SDS011;42175;46.930;9.532;2023-05-07T14:01:05;6.38;;;5.28;;
56267;SDS011;42175;46.930;9.532;2023-05-07T14:03:31;8.70;;;5.55;;
56267;SDS011;42175;46.930;9.532;2023-05-07T14:05:59;9.30;;;5.15;;
56267;SDS011;42175;46.930;9.532;2023-05-07T14:08:26;8.73;;;5.70;;
56267;SDS011;42175;46.930;9.532;2023-05-07T14:10:52;8.98;;;6.28;;
56267;SDS011;42175;46.930;9.532;2023-05-07T14:13:18;6.70;;;5.60;;
56267;SDS011;42175;46.930;9.532;2023-05-07T14:15:43;7.55;;;5.05;;
56267;SDS011;42175;46.930;9.532;2023-05-07T14:18:14;9.48;;;4.70;;
56267;SDS011;42175;46.930;9.532;2023-05-07T14:20:40;8.68;;;5.85;;
56267;SDS011;42175;46.930;9.532;2023-05-07T14:23:08;7.70;;;5.45;;
56267;SDS011;42175;46.930;9.532;2023-05-07T14:25:34;11.13;;;5.40;;
56267;SDS011;42175;46.930;9.532;2023-05-07T14:28:00;7.22;;;5.05;;
56267;SDS011;42175;46.930;9.532;2023-05-07T14:30:26;7.60;;;4.97;;
56267;SDS011;42175;46.930;9.532;2023-05-07T14:32:51;8.18;;;3.92;;
56267;SDS011;42175;46.930;9.532;2023-05-07T14:35:17;6.25;;;4.72;;
56267;SDS011;42175;46.930;9.532;2023-05-07T14:37:43;5.97;;;4.85;;
56267;SDS011;42175;46.930;9.532;2023-05-07T14:40:08;8.77;;;5.00;;
56267;SDS011;42175;46.930;9.532;2023-05-07T14:42:35;13.10;;;5.82;;
56267;SDS011;42175;46.930;9.532;2023-05-07T14:45:01;7.63;;;4.95;;
56267;SDS011;42175;46.930;9.532;2023-05-07T14:47:27;8.43;;;6.00;;
56267;SDS011;42175;46.930;9.532;2023-05-07T14:49:53;12.05;;;5.30;;
56267;SDS011;42175;46.930;9.532;2023-05-07T14:52:19;5.38;;;4.43;;
56267;SDS011;42175;46.930;9.532;2023-05-07T14:54:45;7.57;;;5.30;;
56267;SDS011;42175;46.930;9.532;2023-05-07T14:57:11;8.27;;;4.90;;